Time;durP1;ratioP1;P1;durP2;ratioP2;P2;SDS_P1;SDS_P2;PMS_P1;PMS_P2;Temp;Humidity;BMP_temperature;BMP_pressure;BME280_temperature;BME280_humidity;BME280_pressure;Samples;Min_cycle;Max_cycle;Signal;HPM_P1;HPM_P2
2024/02/17 00:00:43;;;;;;;8.77;4.13;;;;;;;9.90;100.00;98954.31;6107221;19;20344;-75
2024/02/17 00:02:43;;;;;;;6.38;4.70;;;;;;;9.88;100.00;98951.91;6108355;19;20026;-74
2024/02/17 00:04:44;;;;;;;7.32;4.70;;;;;;;9.83;100.00;98955.75;6107756;19;20071;-74
2024/02/17 00:06:44;;;;;;;8.70;4.40;;;;;;;9.79;100.00;98952.13;6109178;19;20010;-75
2024/02/17 00:08:45;;;;;;;6.13;4.93;;;;;;;9.90;100.00;98963.41;6107385;19;20066;-75
2024/02/17 00:10:45;;;;;;;7.57;5.05;;;;;;;9.88;100.00;98965.72;6108625;19;20010;-75
2024/02/17 00:12:45;;;;;;;8.48;5.63;;;;;;;9.83;100.00;98971.53;6108731;19;20009;-75
2024/02/17 00:14:46;;;;;;;7.50;5.10;;;;;;;9.84;100.00;98968.41;6104949;19;20007;-74
2024/02/17 00:16:46;;;;;;;7.97;5.18;;;;;;;9.86;100.00;98970.81;6100450;19;19998;-74
2024/02/17 00:18:47;;;;;;;10.60;5.00;;;;;;;9.90;100.00;98977.22;6098840;19;20554;-75
2024/02/17 00:20:47;;;;;;;9.07;5.72;;;;;;;9.92;100.00;98979.63;6099350;19;19994;-74
2024/02/17 00:22:47;;;;;;;12.70;5.32;;;;;;;9.93;100.00;98982.03;6099804;19;20005;-75
2024/02/17 00:24:48;;;;;;;8.48;5.85;;;;;;;9.88;100.00;98985.09;6100048;19;19999;-75
2024/02/17 00:26:49;;;;;;;9.25;5.22;;;;;;;9.90;100.00;98987.47;6100890;19;19999;-74
2024/02/17 00:28:51;;;;;;;8.73;5.63;;;;;;;9.86;100.00;98992.94;6098802;19;20006;-74
2024/02/17 00:30:54;;;;;;;;;;;;;;;9.80;100.00;98992.41;6099909;19;20005;-75
2024/02/17 00:32:55;;;;;;;;;;;;;;;9.75;100.00;98995.44;6100805;19;19925;-74
2024/02/17 00:34:55;;;;;;;12.20;6.50;;;;;;;9.68;100.00;98997.22;6099586;19;19923;-74
2024/02/17 00:36:55;;;;;;;9.70;6.90;;;;;;;9.69;100.00;99001.63;6099201;19;20006;-74
2024/02/17 00:38:56;;;;;;;12.75;8.27;;;;;;;9.64;100.00;98997.16;6097576;19;20036;-74
2024/02/17 00:40:56;;;;;;;11.10;6.95;;;;;;;9.58;100.00;98999.38;6100059;19;20007;-74
2024/02/17 00:42:57;;;;;;;12.27;6.47;;;;;;;9.58;100.00;99004.91;6099950;19;20023;-74
2024/02/17 00:44:57;;;;;;;10.77;6.78;;;;;;;9.60;100.00;99009.28;6098793;19;20007;-74
2024/02/17 00:46:57;;;;;;;11.05;7.13;;;;;;;9.54;100.00;99012.34;6099386;19;20002;-74
2024/02/17 00:48:58;;;;;;;10.35;6.90;;;;;;;9.56;100.00;99018.28;6098259;19;20011;-75
2024/02/17 00:50:59;;;;;;;14.57;7.47;;;;;;;9.52;100.00;99014.66;6097948;19;20035;-74
2024/02/17 00:53:00;;;;;;;14.25;8.07;;;;;;;9.53;100.00;99020.97;6096665;19;20021;-75
2024/02/17 00:55:00;;;;;;;12.07;8.43;;;;;;;9.51;100.00;99024.06;6099214;19;20017;-74
2024/02/17 00:57:00;;;;;;;12.15;7.75;;;;;;;9.48;100.00;99027.56;6098792;19;20007;-74
2024/02/17 00:59:01;;;;;;;11.88;7.68;;;;;;;9.43;100.00;99030.63;6097555;19;20082;-74
2024/02/17 01:01:02;;;;;;;11.23;7.00;;;;;;;9.51;100.00;99037.09;6097636;19;20006;-74
2024/02/17 01:03:03;;;;;;;11.23;7.45;;;;;;;9.45;100.00;99044.06;6098767;19;20407;-74
2024/02/17 01:05:04;;;;;;;13.52;7.55;;;;;;;9.48;100.00;99046.09;6098540;19;19999;-74
2024/02/17 01:07:04;;;;;;;10.25;6.80;;;;;;;9.52;100.00;99058.06;6098507;19;20036;-74
2024/02/17 01:09:04;;;;;;;12.40;6.60;;;;;;;9.53;100.00;99054.94;6097376;19;20011;-74
2024/02/17 01:11:05;;;;;;;10.55;6.22;;;;;;;9.43;100.00;99049.94;6097447;19;20010;-75
2024/02/17 01:13:05;;;;;;;8.20;5.70;;;;;;;9.40;100.00;99050.63;6101226;19;20023;-74
2024/02/17 01:15:06;;;;;;;11.05;7.15;;;;;;;9.43;100.00;99062.94;6106159;19;20021;-74
2024/02/17 01:17:07;;;;;;;9.07;6.38;;;;;;;9.37;100.00;99062.41;6112674;19;20011;-75
2024/02/17 01:19:07;;;;;;;9.88;6.47;;;;;;;9.35;100.00;99078.53;6111228;19;20013;-75
2024/02/17 01:21:07;;;;;;;13.13;6.55;;;;;;;9.35;100.00;99075.78;6111184;19;20036;-75
2024/02/17 01:23:08;;;;;;;11.02;6.55;;;;;;;9.36;100.00;99079.34;6112843;19;20010;-74
2024/02/17 01:25:08;;;;;;;8.23;5.70;;;;;;;9.27;100.00;99074.00;6112011;19;20514;-74
2024/02/17 01:27:09;;;;;;;11.90;7.07;;;;;;;9.26;100.00;99075.91;6112380;19;20014;-74
2024/02/17 01:29:09;;;;;;;11.73;7.28;;;;;;;9.22;100.00;99083.31;6111085;19;20006;-76
2024/02/17 01:31:09;;;;;;;9.13;6.30;;;;;;;9.18;100.00;99078.84;6112088;19;20013;-75
2024/02/17 01:33:10;;;;;;;9.27;6.53;;;;;;;9.17;100.00;99077.25;6111664;19;20098;-75
2024/02/17 01:35:10;;;;;;;9.40;5.90;;;;;;;9.11;100.00;99085.00;6111612;19;20321;-74
2024/02/17 01:37:10;;;;;;;10.30;6.40;;;;;;;9.12;100.00;99080.28;6112173;19;20003;-75
2024/02/17 01:39:11;;;;;;;8.55;6.00;;;;;;;9.10;100.00;99083.41;6111492;19;20009;-75
2024/02/17 01:41:12;;;;;;;8.57;5.57;;;;;;;9.11;100.00;99082.25;6112186;19;20026;-75
2024/02/17 01:43:13;;;;;;;9.48;5.85;;;;;;;9.07;100.00;99084.09;6112078;19;20007;-75
2024/02/17 01:45:14;;;;;;;10.35;5.30;;;;;;;9.07;100.00;99086.84;6111565;19;19998;-74
2024/02/17 01:47:14;;;;;;;8.85;4.97;;;;;;;9.06;100.00;99099.06;6111356;19;20005;-75
2024/02/17 01:49:14;;;;;;;8.73;5.45;;;;;;;9.09;100.00;99092.81;6111028;19;20014;-74
2024/02/17 01:51:15;;;;;;;7.95;4.85;;;;;;;9.08;100.00;99093.19;6111097;19;20013;-74
2024/02/17 01:53:16;;;;;;;7.60;4.65;;;;;;;9.08;100.00;99093.19;6111329;19;20003;-74
2024/02/17 01:55:17;;;;;;;9.15;4.60;;;;;;;9.06;100.00;99103.78;6112394;19;20007;-75
2024/02/17 01:57:17;;;;;;;7.00;4.65;;;;;;;9.03;100.00;99099.78;6111367;19;20006;-75
2024/02/17 01:59:18;;;;;;;8.15;5.18;;;;;;;8.99;100.00;99104.38;6110206;19;20014;-75
2024/02/17 02:01:19;;;;;;;7.18;4.70;;;;;;;8.98;100.00;99102.78;6111199;19;20565;-75
2024/02/17 02:03:20;;;;;;;6.78;4.50;;;;;;;8.97;100.00;99101.97;6111661;19;20017;-75
2024/02/17 02:05:21;;;;;;;7.18;4.30;;;;;;;8.94;100.00;99108.22;6110782;19;20002;-74
2024/02/17 02:07:21;;;;;;;6.35;4.55;;;;;;;8.93;100.00;99103.00;6111431;19;20404;-75
2024/02/17 02:09:25;;;;;;;9.10;5.60;;;;;;;8.95;100.00;99111.78;6109938;19;20583;-75
2024/02/17 02:11:25;;;;;;;6.75;4.80;;;;;;;8.91;100.00;99113.63;6111474;19;20009;-75
2024/02/17 02:13:28;;;;;;;9.38;5.88;;;;;;;8.90;100.00;99112.00;6111437;19;20035;-75
2024/02/17 02:15:29;;;;;;;9.10;6.40;;;;;;;8.89;100.00;99113.97;6111477;19;20034;-75
2024/02/17 02:17:29;;;;;;;11.02;6.35;;;;;;;8.91;100.00;99114.41;6111214;19;20406;-75
2024/02/17 02:19:30;;;;;;;10.80;6.82;;;;;;;8.89;100.00;99119.50;6109792;19;20013;-75
2024/02/17 02:21:30;;;;;;;9.90;6.15;;;;;;;8.86;100.00;99125.72;6109571;19;20010;-74
2024/02/17 02:23:35;;;;;;;8.95;6.32;;;;;;;8.86;100.00;99128.47;6111100;19;20007;-75
2024/02/17 02:25:39;;;;;;;9.45;5.85;;;;;;;8.86;100.00;99133.19;6111721;19;20052;-75
2024/02/17 02:27:41;;;;;;;12.00;6.82;;;;;;;8.83;100.00;99133.88;6109244;19;20048;-75
2024/02/17 02:29:45;;;;;;;9.57;6.00;;;;;;;8.82;100.00;99122.03;6109683;19;20020;-75
2024/02/17 02:31:46;;;;;;;10.75;5.85;;;;;;;8.86;100.00;99130.44;6111490;19;20523;-75
2024/02/17 02:33:47;;;;;;;9.45;5.72;;;;;;;8.87;100.00;99130.09;6109880;19;20021;-75
2024/02/17 02:35:48;;;;;;;10.82;6.57;;;;;;;8.85;100.00;99137.88;6110835;19;20002;-75
2024/02/17 02:37:48;;;;;;;11.15;6.85;;;;;;;8.86;100.00;99134.00;6111292;19;20016;-75
2024/02/17 02:39:48;;;;;;;7.32;5.20;;;;;;;8.84;100.00;99135.47;6109393;19;19998;-75
2024/02/17 02:41:49;;;;;;;8.80;5.65;;;;;;;8.81;100.00;99134.25;6110280;19;20002;-75
2024/02/17 02:43:49;;;;;;;10.85;6.53;;;;;;;8.85;100.00;99134.31;6110978;19;20396;-75
2024/02/17 02:45:50;;;;;;;10.60;5.70;;;;;;;8.84;100.00;99135.47;6110754;19;20002;-75
2024/02/17 02:47:50;;;;;;;8.35;5.22;;;;;;;8.79;100.00;99141.28;6110739;19;20009;-75
2024/02/17 02:49:50;;;;;;;9.32;6.15;;;;;;;8.78;100.00;99131.38;6110022;19;19999;-75
2024/02/17 02:51:51;;;;;;;10.48;7.32;;;;;;;8.77;100.00;99125.06;6110089;19;20467;-75
2024/02/17 02:53:54;;;;;;;9.20;5.90;;;;;;;8.77;100.00;99129.75;6110498;19;19999;-74
2024/02/17 02:55:56;;;;;;;9.57;6.20;;;;;;;8.72;100.00;99128.88;6110148;19;20530;-74
2024/02/17 02:57:56;;;;;;;9.48;6.22;;;;;;;8.70;100.00;99125.66;6110802;19;20003;-75
2024/02/17 02:59:58;;;;;;;10.40;6.07;;;;;;;8.67;100.00;99129.09;6108353;19;20002;-75
2024/02/17 03:01:58;;;;;;;11.02;6.15;;;;;;;8.64;100.00;99126.25;6110919;19;20002;-75
2024/02/17 03:03:58;;;;;;;10.18;6.35;;;;;;;8.61;100.00;99124.19;6109648;19;20035;-75
2024/02/17 03:05:59;;;;;;;9.20;5.90;;;;;;;8.54;100.00;99130.31;6110495;19;20321;-75
2024/02/17 03:07:59;;;;;;;9.50;6.28;;;;;;;8.49;100.00;99127.78;6110787;19;20079;-75
2024/02/17 03:10:00;;;;;;;9.77;6.05;;;;;;;8.41;100.00;99128.72;6108238;19;20568;-75
2024/02/17 03:12:00;;;;;;;10.52;6.10;;;;;;;8.34;100.00;99131.22;6110866;19;20075;-74
2024/02/17 03:14:01;;;;;;;9.35;6.03;;;;;;;8.26;100.00;99124.69;6110120;19;19998;-75
2024/02/17 03:16:01;;;;;;;9.10;6.00;;;;;;;8.22;100.00;99136.75;6109131;19;20022;-74
2024/02/17 03:18:01;;;;;;;8.93;5.90;;;;;;;8.19;100.00;99132.72;6110056;19;19998;-74
2024/02/17 03:20:04;;;;;;;12.63;6.95;;;;;;;8.13;100.00;99137.69;6107658;19;20009;-75
2024/02/17 03:22:05;;;;;;;12.15;6.07;;;;;;;8.09;100.00;99134.00;6109299;19;19999;-75
2024/02/17 03:24:06;;;;;;;8.93;6.07;;;;;;;8.05;100.00;99137.81;6109572;19;20343;-75
2024/02/17 03:26:06;;;;;;;10.10;6.40;;;;;;;8.00;100.00;99138.03;6108523;19;19999;-74
2024/02/17 03:28:07;;;;;;;10.88;6.60;;;;;;;7.95;100.00;99146.53;6108432;19;19995;-75
2024/02/17 03:30:07;;;;;;;11.20;6.07;;;;;;;7.94;100.00;99144.91;6109250;19;19999;-74
2024/02/17 03:32:08;;;;;;;9.10;5.75;;;;;;;7.86;100.00;99149.38;6109636;19;20011;-74
2024/02/17 03:34:08;;;;;;;10.75;6.40;;;;;;;7.83;100.00;99144.56;6108286;19;20429;-75
2024/02/17 03:36:10;;;;;;;11.52;6.00;;;;;;;7.76;100.00;99145.13;6107323;19;20010;-75
2024/02/17 03:38:10;;;;;;;11.00;6.88;;;;;;;7.71;100.00;99148.13;6108163;19;20002;-75
2024/02/17 03:40:11;;;;;;;8.65;5.28;;;;;;;7.62;100.00;99158.44;6109557;19;20007;-74
2024/02/17 03:42:11;;;;;;;8.95;5.60;;;;;;;7.60;100.00;99153.25;6109672;19;19998;-75
2024/02/17 03:44:12;;;;;;;9.50;5.70;;;;;;;7.56;100.00;99162.56;6109239;19;20074;-75
2024/02/17 03:46:12;;;;;;;9.20;5.82;;;;;;;7.51;100.00;99171.81;6105521;19;20038;-75
2024/02/17 03:48:13;;;;;;;9.43;5.88;;;;;;;7.48;100.00;99167.00;6106206;19;19995;-75
2024/02/17 03:50:13;;;;;;;9.85;5.88;;;;;;;7.45;100.00;99177.91;6107416;19;20332;-74
2024/02/17 03:52:14;;;;;;;10.13;6.28;;;;;;;7.39;100.00;99176.50;6108937;19;20472;-74
2024/02/17 03:54:15;;;;;;;10.00;6.15;;;;;;;7.32;100.00;99175.13;6108687;19;20007;-74
2024/02/17 03:56:16;;;;;;;10.27;6.13;;;;;;;7.26;100.00;99176.47;6109401;19;20023;-75
2024/02/17 03:58:17;;;;;;;10.48;7.10;;;;;;;7.19;100.00;99180.91;6107841;19;20022;-75
2024/02/17 04:00:17;;;;;;;11.32;6.38;;;;;;;7.11;100.00;99181.78;6108637;19;20392;-74
2024/02/17 04:02:17;;;;;;;11.90;5.78;;;;;;;7.07;100.00;99191.88;6107828;19;20347;-75
2024/02/17 04:04:18;;;;;;;8.93;6.20;;;;;;;7.09;100.00;99198.63;6109083;19;20014;-75
2024/02/17 04:06:18;;;;;;;8.52;5.35;;;;;;;7.09;100.00;99195.88;6109472;19;20327;-74
2024/02/17 04:08:18;;;;;;;9.18;5.45;;;;;;;7.14;100.00;99200.41;6108135;19;20013;-75
2024/02/17 04:10:19;;;;;;;8.43;5.43;;;;;;;7.15;100.00;99208.31;6108368;19;20002;-75
2024/02/17 04:12:19;;;;;;;10.57;5.57;;;;;;;7.13;100.00;99202.34;6108503;19;20010;-74
2024/02/17 04:14:20;;;;;;;11.60;6.03;;;;;;;7.11;100.00;99201.84;6099656;19;20316;-75
2024/02/17 04:16:20;;;;;;;9.52;6.10;;;;;;;7.10;100.00;99207.69;6107996;19;20384;-75
2024/02/17 04:18:21;;;;;;;8.50;5.28;;;;;;;7.06;100.00;99207.59;6107666;19;20039;-75
2024/02/17 04:20:21;;;;;;;10.05;5.45;;;;;;;7.02;100.00;99212.94;6108121;19;20011;-75
2024/02/17 04:22:24;;;;;;;10.05;5.60;;;;;;;6.96;100.00;99208.81;6107728;19;20329;-74
2024/02/17 04:24:24;;;;;;;9.98;5.90;;;;;;;6.97;100.00;99223.38;6107296;19;20576;-75
2024/02/17 04:26:25;;;;;;;10.65;6.07;;;;;;;6.96;100.00;99233.56;6108126;19;20344;-75
2024/02/17 04:28:25;;;;;;;10.52;5.70;;;;;;;6.89;100.00;99229.75;6106766;19;20006;-75
2024/02/17 04:30:25;;;;;;;8.88;5.28;;;;;;;6.87;100.00;99234.75;6107434;19;20048;-75
2024/02/17 04:32:26;;;;;;;9.23;5.43;;;;;;;6.85;100.00;99239.78;6107784;19;20482;-75
2024/02/17 04:34:29;;;;;;;9.98;5.63;;;;;;;6.73;100.00;99235.03;6105418;19;20021;-75
2024/02/17 04:36:30;;;;;;;8.05;5.32;;;;;;;6.65;100.00;99238.63;6107383;19;20007;-74
2024/02/17 04:38:30;;;;;;;8.70;4.38;;;;;;;6.52;100.00;99239.69;6106752;19;20014;-75
2024/02/17 04:40:30;;;;;;;8.65;4.80;;;;;;;6.44;100.00;99236.63;6108030;19;20017;-74
2024/02/17 04:42:31;;;;;;;7.40;4.93;;;;;;;6.33;100.00;99249.16;6108165;19;20004;-75
2024/02/17 04:44:31;;;;;;;9.32;6.07;;;;;;;6.29;100.00;99247.38;6105980;19;20011;-74
2024/02/17 04:46:31;;;;;;;8.20;4.65;;;;;;;6.23;100.00;99246.78;6108530;19;20002;-74
2024/02/17 04:48:32;;;;;;;9.85;5.90;;;;;;;6.27;100.00;99246.91;6112273;19;20027;-74
2024/02/17 04:50:32;;;;;;;10.50;6.10;;;;;;;6.30;100.00;99252.59;6112274;19;20007;-75
2024/02/17 04:52:32;;;;;;;8.93;5.80;;;;;;;6.23;100.00;99257.78;6113449;19;20017;-74
2024/02/17 04:54:33;;;;;;;12.30;5.93;;;;;;;6.29;100.00;99261.13;6112726;19;20752;-75
2024/02/17 04:56:34;;;;;;;10.15;5.90;;;;;;;6.28;100.00;99262.28;6113784;19;20506;-74
2024/02/17 04:58:34;;;;;;;10.20;6.25;;;;;;;6.23;100.00;99262.47;6113198;19;20037;-74
2024/02/17 05:00:34;;;;;;;10.13;6.75;;;;;;;6.25;100.00;99271.19;6113616;19;20010;-75
2024/02/17 05:02:37;;;;;;;10.70;6.75;;;;;;;6.22;100.00;99271.84;6112481;19;20017;-74
2024/02/17 05:04:37;;;;;;;11.95;6.70;;;;;;;6.20;100.00;99283.16;6112911;19;20060;-74
2024/02/17 05:06:37;;;;;;;12.40;6.93;;;;;;;6.22;100.00;99285.59;6114458;19;20336;-74
2024/02/17 05:08:38;;;;;;;11.23;7.30;;;;;;;6.18;100.00;99293.69;6113095;19;20011;-74
2024/02/17 05:10:39;;;;;;;13.18;7.93;;;;;;;6.15;100.00;99295.16;6110080;19;20006;-74
2024/02/17 05:12:39;;;;;;;13.75;7.63;;;;;;;6.17;100.00;99295.63;6111867;19;20032;-74
2024/02/17 05:14:40;;;;;;;13.45;7.18;;;;;;;6.15;100.00;99294.34;6108658;19;20455;-74
2024/02/17 05:16:40;;;;;;;13.15;7.28;;;;;;;6.09;100.00;99299.19;6104728;19;20506;-74
2024/02/17 05:18:40;;;;;;;16.70;8.55;;;;;;;6.08;100.00;99292.09;6103390;19;20585;-74
2024/02/17 05:20:41;;;;;;;17.45;7.80;;;;;;;6.05;100.00;99300.19;6104530;19;20563;-74
2024/02/17 05:22:43;;;;;;;15.38;8.10;;;;;;;6.05;100.00;99301.00;6105057;19;20034;-74
2024/02/17 05:24:44;;;;;;;14.50;8.13;;;;;;;6.09;100.00;99301.16;6104072;19;20007;-74
2024/02/17 05:26:44;;;;;;;14.82;7.47;;;;;;;6.10;100.00;99311.00;6104186;19;20019;-74
2024/02/17 05:28:44;;;;;;;17.15;7.88;;;;;;;6.12;100.00;99326.03;6103437;19;20218;-75
2024/02/17 05:30:45;;;;;;;17.95;8.82;;;;;;;6.07;100.00;99315.22;6103921;19;20006;-75
2024/02/17 05:32:45;;;;;;;16.55;8.88;;;;;;;6.07;100.00;99325.41;6103418;19;20010;-74
2024/02/17 05:34:45;;;;;;;17.25;8.32;;;;;;;6.06;100.00;99318.28;6104346;19;20082;-74
2024/02/17 05:36:46;;;;;;;14.70;8.27;;;;;;;6.09;100.00;99321.19;6104004;19;20003;-74
2024/02/17 05:38:46;;;;;;;14.73;7.80;;;;;;;6.13;100.00;99335.91;6102846;19;20010;-74
2024/02/17 05:40:46;;;;;;;20.58;9.45;;;;;;;6.19;100.00;99333.75;6103436;19;20307;-74
2024/02/17 05:42:46;;;;;;;20.33;9.65;;;;;;;6.23;100.00;99328.44;6103230;19;20015;-74
2024/02/17 05:44:47;;;;;;;19.15;9.77;;;;;;;6.33;100.00;99336.31;6103432;19;20006;-74
2024/02/17 05:46:47;;;;;;;16.85;9.18;;;;;;;6.35;100.00;99340.34;6103568;19;20014;-74
2024/02/17 05:48:48;;;;;;;15.93;9.55;;;;;;;6.40;100.00;99336.59;6102100;19;20062;-74
2024/02/17 05:50:49;;;;;;;23.63;9.82;;;;;;;6.36;100.00;99339.19;6103919;19;20021;-74
2024/02/17 05:52:49;;;;;;;18.90;9.68;;;;;;;6.37;100.00;99340.00;6104468;19;20018;-75
2024/02/17 05:54:49;;;;;;;21.55;10.63;;;;;;;6.34;100.00;99348.91;6104466;19;20351;-74
2024/02/17 05:56:50;;;;;;;24.05;10.65;;;;;;;6.36;100.00;99354.88;6103244;19;20003;-75
2024/02/17 05:58:50;;;;;;;19.27;10.07;;;;;;;6.34;100.00;99354.41;6100548;19;20030;-74
2024/02/17 06:00:51;;;;;;;20.95;10.35;;;;;;;6.29;100.00;99351.81;6102721;19;20007;-74
2024/02/17 06:02:51;;;;;;;19.02;9.68;;;;;;;6.31;100.00;99358.63;6103478;19;20014;-74
2024/02/17 06:04:51;;;;;;;19.30;9.30;;;;;;;6.28;100.00;99361.22;6103094;19;20007;-74
2024/02/17 06:06:52;;;;;;;17.45;10.05;;;;;;;6.28;100.00;99361.22;6103617;19;20502;-74
2024/02/17 06:08:53;;;;;;;20.88;10.30;;;;;;;6.31;100.00;99360.56;6103219;19;20268;-74
2024/02/17 06:10:53;;;;;;;20.65;10.15;;;;;;;6.34;100.00;99366.22;6102891;19;20437;-74
2024/02/17 06:12:53;;;;;;;20.80;9.77;;;;;;;6.29;100.00;99368.31;6101883;19;20007;-74
2024/02/17 06:14:54;;;;;;;18.92;10.57;;;;;;;6.31;100.00;99377.88;6103847;19;20427;-74
2024/02/17 06:16:54;;;;;;;20.70;10.32;;;;;;;6.30;100.00;99378.19;6111007;19;20587;-74
2024/02/17 06:21:20;;;;;;;19.15;10.00;;;;;;;6.30;100.00;99376.25;6111284;19;20010;-74
2024/02/17 06:23:20;;;;;;;19.63;9.77;;;;;;;6.27;100.00;99381.59;6111416;19;20026;-74
2024/02/17 06:25:20;;;;;;;19.98;9.40;;;;;;;6.28;100.00;99391.44;6110228;19;20003;-74
2024/02/17 06:27:21;;;;;;;18.38;9.73;;;;;;;6.30;100.00;99386.44;6109126;19;20105;-75
2024/02/17 06:29:21;;;;;;;18.63;9.48;;;;;;;6.27;100.00;99392.56;6110329;19;20003;-74
2024/02/17 06:31:22;;;;;;;18.13;9.07;;;;;;;6.24;100.00;99391.28;6107697;19;20023;-75
2024/02/17 06:33:22;;;;;;;20.23;9.73;;;;;;;6.29;100.00;99396.63;6110063;19;20465;-74
2024/02/17 06:35:23;;;;;;;19.08;9.88;;;;;;;6.29;100.00;99407.63;6110402;19;20011;-74
2024/02/17 06:37:23;;;;;;;23.17;10.07;;;;;;;6.29;100.00;99417.78;6110190;19;20018;-75
2024/02/17 06:39:24;;;;;;;20.48;10.00;;;;;;;6.31;100.00;99421.84;6108697;19;20317;-75
2024/02/17 06:41:24;;;;;;;16.83;10.30;;;;;;;6.27;100.00;99426.34;6108748;19;20436;-74
2024/02/17 06:43:24;;;;;;;20.13;9.48;;;;;;;6.30;100.00;99419.44;6110352;19;20019;-75
2024/02/17 06:45:25;;;;;;;22.70;10.90;;;;;;;6.36;100.00;99429.09;6110553;19;20002;-74
2024/02/17 06:47:25;;;;;;;21.13;9.63;;;;;;;6.38;100.00;99444.16;6109024;19;20070;-74
2024/02/17 06:49:25;;;;;;;17.20;9.02;;;;;;;6.37;100.00;99442.53;6110014;19;20023;-74
2024/02/17 06:51:26;;;;;;;19.25;10.50;;;;;;;6.35;100.00;99439.28;6110456;19;20017;-74
2024/02/17 06:53:27;;;;;;;18.80;8.85;;;;;;;6.39;100.00;99433.94;6110350;19;20022;-74
2024/02/17 06:55:27;;;;;;;20.75;9.52;;;;;;;6.41;100.00;99443.47;6109993;19;20002;-74
2024/02/17 06:57:27;;;;;;;17.85;9.52;;;;;;;6.40;100.00;99441.06;6110410;19;20078;-74
2024/02/17 06:59:28;;;;;;;16.27;9.63;;;;;;;6.38;100.00;99438.66;6109310;19;20032;-74
2024/02/17 07:01:29;;;;;;;19.17;9.55;;;;;;;6.42;100.00;99447.84;6110190;19;20350;-74
2024/02/17 07:03:29;;;;;;;23.70;10.07;;;;;;;6.43;100.00;99445.91;6110813;19;20038;-74
2024/02/17 07:05:34;;;;;;;20.42;10.60;;;;;;;6.48;100.00;99454.78;6110853;19;20474;-74
2024/02/17 07:07:34;;;;;;;19.67;9.00;;;;;;;6.51;100.00;99463.50;6110475;19;20020;-74
2024/02/17 07:09:39;;;;;;;25.35;12.93;;;;;;;6.58;100.00;99458.31;6107420;19;20010;-74
2024/02/17 07:11:39;;;;;;;23.33;11.52;;;;;;;6.63;100.00;99456.22;6107753;19;20030;-74
2024/02/17 07:13:40;;;;;;;16.48;9.38;;;;;;;6.64;100.00;99471.56;6110402;19;20111;-75
2024/02/17 07:15:40;;;;;;;18.35;10.88;;;;;;;6.70;100.00;99467.50;6109771;19;20038;-75
2024/02/17 07:17:41;;;;;;;18.15;10.48;;;;;;;6.70;100.00;99464.75;6110335;19;20037;-75
2024/02/17 07:19:41;;;;;;;17.92;10.95;;;;;;;6.72;100.00;99475.44;6109229;19;20007;-74
2024/02/17 07:21:41;;;;;;;19.50;9.95;;;;;;;6.75;100.00;99477.50;6109708;19;20102;-74
2024/02/17 07:23:42;;;;;;;16.23;9.80;;;;;;;6.81;100.00;99486.41;6109238;19;19998;-74
2024/02/17 07:25:44;;;;;;;18.05;9.00;;;;;;;6.88;100.00;99492.22;6110458;19;20557;-74
2024/02/17 07:27:46;;;;;;;17.38;9.30;;;;;;;6.91;100.00;99495.09;6110683;19;20042;-74
2024/02/17 07:29:46;;;;;;;23.35;9.35;;;;;;;6.98;100.00;99491.84;6108486;19;20003;-74
2024/02/17 07:31:47;;;;;;;15.38;8.85;;;;;;;7.05;100.00;99492.16;6109234;19;20062;-74
2024/02/17 07:33:49;;;;;;;17.58;9.32;;;;;;;7.13;100.00;99496.00;6109848;19;19999;-75
2024/02/17 07:35:49;;;;;;;19.83;9.57;;;;;;;7.21;100.00;99501.47;6106604;19;20010;-74
2024/02/17 07:37:49;;;;;;;15.15;8.32;;;;;;;7.28;100.00;99492.66;6109145;19;20039;-75
2024/02/17 07:39:50;;;;;;;15.85;8.05;;;;;;;7.37;100.00;99498.16;6108120;19;20014;-75
2024/02/17 07:41:51;;;;;;;18.75;7.93;;;;;;;7.37;100.00;99507.22;6110289;19;20038;-74
2024/02/17 07:43:52;;;;;;;16.67;9.23;;;;;;;7.42;100.00;99504.25;6108486;19;20344;-75
2024/02/17 07:45:52;;;;;;;15.68;8.80;;;;;;;7.43;100.00;99503.13;6109677;19;20010;-74
2024/02/17 07:47:53;;;;;;;15.63;9.02;;;;;;;7.46;100.00;99510.75;6109061;19;20728;-75
2024/02/17 07:49:53;;;;;;;14.80;8.05;;;;;;;7.49;100.00;99517.53;6107066;19;20117;-74
2024/02/17 07:51:54;;;;;;;18.00;9.07;;;;;;;7.51;100.00;99520.75;6108417;19;20007;-74
2024/02/17 07:53:54;;;;;;;18.30;9.07;;;;;;;7.55;100.00;99524.47;6108783;19;20002;-74
2024/02/17 07:55:54;;;;;;;16.90;9.40;;;;;;;7.57;100.00;99522.16;6109372;19;20003;-74
2024/02/17 07:57:55;;;;;;;15.25;8.38;;;;;;;7.56;100.00;99517.81;6109160;19;20003;-74
2024/02/17 07:59:55;;;;;;;19.27;9.90;;;;;;;7.65;100.00;99526.81;6107709;19;20009;-74
2024/02/17 08:01:55;;;;;;;18.95;9.70;;;;;;;7.70;100.00;99526.66;6109947;19;19999;-75
2024/02/17 08:03:56;;;;;;;17.35;9.07;;;;;;;7.76;100.00;99535.50;6107013;19;20010;-75
2024/02/17 08:05:57;;;;;;;19.73;9.07;;;;;;;7.81;100.00;99530.63;6107741;19;20399;-74
2024/02/17 08:07:57;;;;;;;18.20;9.35;;;;;;;7.82;100.00;99528.66;6108716;19;20027;-75
2024/02/17 08:09:57;;;;;;;18.10;9.07;;;;;;;7.86;100.00;99535.94;6107079;19;20009;-74
2024/02/17 08:11:58;;;;;;;17.65;9.75;;;;;;;7.96;100.00;99540.25;6108578;19;20007;-75
2024/02/17 08:13:58;;;;;;;17.58;9.90;;;;;;;8.03;100.00;99545.22;6108612;19;20712;-75
2024/02/17 08:15:58;;;;;;;23.23;11.45;;;;;;;8.03;100.00;99546.03;6108515;19;20026;-74
2024/02/17 08:17:59;;;;;;;27.50;15.95;;;;;;;8.03;100.00;99543.28;6107018;19;20018;-74
2024/02/17 08:19:59;;;;;;;31.63;19.00;;;;;;;8.08;100.00;99547.78;6107300;19;20015;-74
2024/02/17 08:22:00;;;;;;;24.75;15.85;;;;;;;8.10;100.00;99551.78;6107509;19;20458;-74
2024/02/17 08:24:00;;;;;;;25.25;15.00;;;;;;;8.20;100.00;99555.31;6107875;19;20872;-75
2024/02/17 08:26:01;;;;;;;19.02;13.02;;;;;;;8.23;100.00;99551.88;6108000;19;20034;-75
2024/02/17 08:28:01;;;;;;;20.75;12.02;;;;;;;8.32;100.00;99555.38;6108673;19;20335;-74
2024/02/17 08:30:03;;;;;;;22.67;10.35;;;;;;;8.35;100.00;99557.47;6106456;19;20003;-74
2024/02/17 08:32:04;;;;;;;19.33;10.15;;;;;;;8.37;100.00;99566.25;6106457;19;20006;-75
2024/02/17 08:34:04;;;;;;;19.13;10.40;;;;;;;8.34;100.00;99569.63;6107849;19;20005;-74
2024/02/17 08:36:05;;;;;;;18.50;11.60;;;;;;;8.37;100.00;99572.56;6104051;19;20007;-74
2024/02/17 08:38:05;;;;;;;19.40;10.82;;;;;;;8.40;100.00;99576.59;6105787;19;20007;-74
2024/02/17 08:40:07;;;;;;;28.95;14.73;;;;;;;8.46;100.00;99572.50;6106018;19;20002;-74
2024/02/17 08:42:08;;;;;;;20.63;11.35;;;;;;;8.50;100.00;99576.19;6108007;19;20690;-74
2024/02/17 08:44:09;;;;;;;17.75;9.80;;;;;;;8.51;100.00;99575.03;6107400;19;20007;-74
2024/02/17 08:46:09;;;;;;;17.98;8.93;;;;;;;8.59;100.00;99581.63;6105518;19;20011;-74
2024/02/17 08:48:10;;;;;;;16.85;9.15;;;;;;;8.60;100.00;99580.47;6106107;19;20470;-74
2024/02/17 08:50:10;;;;;;;19.90;9.60;;;;;;;8.63;100.00;99590.84;6106691;19;20009;-74
2024/02/17 08:52:10;;;;;;;17.77;8.90;;;;;;;8.64;100.00;99589.69;6106030;19;20006;-75
2024/02/17 08:54:11;;;;;;;15.82;9.43;;;;;;;8.70;100.00;99591.91;6107575;19;20002;-75
2024/02/17 08:56:11;;;;;;;17.13;9.95;;;;;;;8.71;100.00;99593.53;6106465;19;20006;-74
2024/02/17 08:58:12;;;;;;;16.85;9.73;;;;;;;8.75;100.00;99588.13;6104713;19;20343;-75
2024/02/17 09:00:13;;;;;;;15.48;9.50;;;;;;;8.86;100.00;99594.84;6106595;19;19990;-74
2024/02/17 09:02:17;;;;;;;18.02;9.95;;;;;;;8.90;100.00;99604.06;6107849;19;21093;-75
2024/02/17 09:04:17;;;;;;;17.40;9.05;;;;;;;8.96;100.00;99607.41;6107162;19;20014;-75
2024/02/17 09:06:18;;;;;;;15.48;8.52;;;;;;;8.96;100.00;99605.47;6106289;19;20017;-74
2024/02/17 09:08:18;;;;;;;16.10;9.18;;;;;;;9.03;100.00;99612.41;6105911;19;20446;-74
2024/02/17 09:10:18;;;;;;;18.83;11.77;;;;;;;8.99;100.00;99602.00;6106525;19;19995;-74
2024/02/17 09:12:20;;;;;;;15.50;10.00;;;;;;;8.98;100.00;99618.91;6106640;19;20002;-75
2024/02/17 09:14:20;;;;;;;16.65;11.18;;;;;;;8.97;100.00;99607.06;6094538;19;20002;-75
2024/02/17 09:16:21;;;;;;;16.80;9.18;;;;;;;8.99;100.00;99618.56;6105819;19;20351;-74
2024/02/17 09:18:23;;;;;;;17.92;10.23;;;;;;;9.01;100.00;99618.22;6105208;19;20040;-74
2024/02/17 09:20:23;;;;;;;18.73;10.90;;;;;;;9.10;100.00;99623.66;6106676;19;20031;-74
2024/02/17 09:22:24;;;;;;;17.63;10.93;;;;;;;9.06;100.00;99626.31;6103158;19;21790;-74
2024/02/17 09:24:26;;;;;;;17.17;8.88;;;;;;;9.12;100.00;99627.72;6105696;19;20017;-74